Time;durP1;ratioP1;P1;durP2;ratioP2;P2;SDS_P1;SDS_P2;PMS_P1;PMS_P2;Temp;Humidity;BMP_temperature;BMP_pressure;BME280_temperature;BME280_humidity;BME280_pressure;Samples;Min_cycle;Max_cycle;Signal;HPM_P1;HPM_P2
2021/04/30 00:00:32;;;;;;;30.83;18.65;;;;;;;7.31;100.00;100604.25;6228133;28;20449;-77
2021/04/30 00:03:33;;;;;;;27.42;18.98;;;;;;;7.17;100.00;100604.00;6228304;28;20133;-78
2021/04/30 00:06:33;;;;;;;31.63;20.60;;;;;;;7.16;100.00;100603.13;6228846;28;20084;-78
2021/04/30 00:09:34;;;;;;;30.00;19.08;;;;;;;7.28;100.00;100607.88;6228470;28;20125;-77
2021/04/30 00:12:36;;;;;;;26.08;19.45;;;;;;;7.37;100.00;100610.09;6227791;28;20049;-77
2021/04/30 00:15:38;;;;;;;29.60;19.40;;;;;;;7.57;100.00;100605.78;6227068;28;20056;-77
2021/04/30 00:18:38;;;;;;;32.35;21.33;;;;;;;7.23;100.00;100615.06;6227931;28;20053;-77
2021/04/30 00:21:39;;;;;;;31.75;21.17;;;;;;;7.27;100.00;100613.16;6227391;28;20129;-76
2021/04/30 00:24:40;;;;;;;32.25;22.67;;;;;;;7.23;100.00;100622.91;6229087;28;20045;-78
2021/04/30 00:27:42;;;;;;;35.55;23.83;;;;;;;7.30;100.00;100619.09;6229087;28;20064;-77
2021/04/30 00:30:43;;;;;;;34.10;21.80;;;;;;;7.44;100.00;100623.75;6228989;28;20041;-78
2021/04/30 00:33:44;;;;;;;34.75;23.35;;;;;;;7.53;100.00;100627.72;6228911;28;20123;-77
2021/04/30 00:36:45;;;;;;;28.73;19.05;;;;;;;7.58;100.00;100637.06;6227535;28;20104;-78
2021/04/30 00:39:46;;;;;;;24.00;18.05;;;;;;;7.52;100.00;100637.34;6227314;28;20429;-77
2021/04/30 00:42:52;;;;;;;27.75;18.83;;;;;;;7.56;100.00;100638.06;6226475;28;20057;-77
2021/04/30 00:45:53;;;;;;;27.25;18.45;;;;;;;7.38;100.00;100643.16;6226530;28;20124;-78
2021/04/30 00:48:54;;;;;;;28.70;21.02;;;;;;;7.36;100.00;100645.00;6226771;28;20046;-77
2021/04/30 00:51:55;;;;;;;33.08;21.70;;;;;;;7.37;100.00;100644.06;6226592;28;20120;-77
2021/04/30 00:54:59;;;;;;;28.50;19.60;;;;;;;7.35;100.00;100655.50;6226440;28;20084;-77
2021/04/30 00:58:02;;;;;;;29.85;21.00;;;;;;;7.34;100.00;100661.66;6226660;28;20070;-77
2021/04/30 01:01:04;;;;;;;32.03;21.95;;;;;;;7.46;100.00;100669.00;6226946;28;20108;-76
2021/04/30 01:04:05;;;;;;;32.53;21.80;;;;;;;7.42;100.00;100666.56;6227025;28;20045;-76
2021/04/30 01:07:06;;;;;;;33.05;21.05;;;;;;;7.45;100.00;100675.13;6226399;28;20069;-75
2021/04/30 01:10:08;;;;;;;31.08;22.00;;;;;;;7.39;100.00;100670.16;6227368;28;20070;-75
2021/04/30 01:13:13;;;;;;;33.20;22.65;;;;;;;7.30;100.00;100673.97;6226327;28;20050;-76
2021/04/30 01:16:14;;;;;;;32.60;22.77;;;;;;;7.26;100.00;100675.03;6226220;28;20054;-75
2021/04/30 01:19:24;;;;;;;32.13;22.73;;;;;;;7.23;100.00;100669.94;6225822;28;20103;-76
2021/04/30 01:22:32;;;;;;;;;;;;;;;7.28;100.00;100675.81;6225538;28;20046;-76
2021/04/30 01:25:37;;;;;;;34.17;22.43;;;;;;;7.27;100.00;100681.97;6217514;28;20340;-76
2021/04/30 01:28:38;;;;;;;32.63;22.00;;;;;;;7.31;100.00;100678.31;6225391;28;20045;-75
2021/04/30 01:31:39;;;;;;;31.35;21.42;;;;;;;7.15;100.00;100697.28;6225380;28;20058;-76
2021/04/30 01:34:40;;;;;;;32.65;21.80;;;;;;;7.23;100.00;100692.63;6224842;28;20052;-76
2021/04/30 01:37:42;;;;;;;37.30;24.35;;;;;;;7.12;100.00;100699.09;6225412;28;20048;-76
2021/04/30 01:40:43;;;;;;;38.35;24.15;;;;;;;7.27;100.00;100702.88;6224832;28;20124;-76
2021/04/30 01:43:44;;;;;;;34.92;24.38;;;;;;;7.18;100.00;100710.25;6224641;28;20525;-75
2021/04/30 01:46:44;;;;;;;38.42;26.02;;;;;;;7.15;100.00;100707.75;6224779;28;20053;-76
2021/04/30 01:49:46;;;;;;;37.88;24.73;;;;;;;7.21;100.00;100713.56;6224726;28;20081;-76
2021/04/30 01:52:48;;;;;;;37.90;26.25;;;;;;;7.22;100.00;100714.41;6224519;28;20137;-76
2021/04/30 01:55:49;;;;;;;37.47;25.15;;;;;;;7.24;100.00;100720.44;6224638;28;20053;-76
2021/04/30 01:58:50;;;;;;;41.83;26.42;;;;;;;7.20;100.00;100727.56;6224534;28;20049;-76
2021/04/30 02:01:51;;;;;;;41.40;28.27;;;;;;;7.22;100.00;100725.75;6224230;28;20129;-76
2021/04/30 02:04:52;;;;;;;37.88;26.20;;;;;;;7.41;100.00;100735.47;6224230;28;20078;-76
2021/04/30 02:07:54;;;;;;;41.17;27.35;;;;;;;7.29;100.00;100736.78;6224309;28;20057;-76
2021/04/30 02:10:55;;;;;;;40.13;26.23;;;;;;;7.33;100.00;100748.84;6224250;28;20137;-76
2021/04/30 02:13:56;;;;;;;41.85;28.42;;;;;;;7.21;100.00;100741.47;6223837;28;20046;-76
2021/04/30 02:16:57;;;;;;;41.83;27.23;;;;;;;7.20;100.00;100748.47;6223672;28;20129;-76
2021/04/30 02:19:58;;;;;;;44.63;28.73;;;;;;;7.18;100.00;100752.91;6223888;28;20132;-77
2021/04/30 02:23:00;;;;;;;38.72;26.77;;;;;;;7.29;100.00;100753.31;6223939;28;20077;-76
2021/04/30 02:26:01;;;;;;;39.67;26.20;;;;;;;7.25;100.00;100749.13;6223935;28;20050;-76
2021/04/30 02:29:03;;;;;;;40.03;26.90;;;;;;;7.23;100.00;100761.41;6223964;28;20093;-75
2021/04/30 02:32:04;;;;;;;44.13;29.05;;;;;;;7.24;100.00;100757.03;6223936;28;20509;-79
2021/04/30 02:35:07;;;;;;;37.55;25.40;;;;;;;7.43;99.64;100758.00;6223048;28;20054;-76
2021/04/30 02:38:11;;;;;;;40.13;26.98;;;;;;;7.32;100.00;100766.28;6223892;28;20050;-76
2021/04/30 02:41:12;;;;;;;44.10;27.30;;;;;;;7.33;100.00;100769.75;6223431;28;20061;-76
2021/04/30 02:44:13;;;;;;;41.63;26.73;;;;;;;7.55;99.53;100769.75;6223253;28;20133;-76
2021/04/30 02:47:14;;;;;;;42.08;28.15;;;;;;;7.26;100.00;100769.13;6223421;28;20137;-76
2021/04/30 02:50:17;;;;;;;42.72;26.75;;;;;;;7.23;100.00;100771.03;6223394;28;20431;-78
2021/04/30 02:53:19;;;;;;;38.75;25.38;;;;;;;7.43;100.00;100773.69;6222869;28;20057;-76
2021/04/30 02:56:20;;;;;;;40.75;27.65;;;;;;;7.29;100.00;100778.63;6223358;28;20103;-76
2021/04/30 02:59:20;;;;;;;43.55;28.02;;;;;;;7.26;100.00;100776.97;6223178;28;20129;-78
2021/04/30 03:02:21;;;;;;;38.42;26.58;;;;;;;7.37;100.00;100777.41;6223281;28;20057;-77
2021/04/30 03:05:23;;;;;;;38.20;25.83;;;;;;;7.24;100.00;100781.41;6222814;28;20129;-76
2021/04/30 03:08:25;;;;;;;40.47;26.88;;;;;;;7.26;100.00;100782.19;6222855;28;20076;-76
2021/04/30 03:11:26;;;;;;;40.83;26.55;;;;;;;7.27;100.00;100783.06;6222825;28;20068;-76
2021/04/30 03:14:27;;;;;;;39.70;27.85;;;;;;;7.21;100.00;100784.13;6222559;28;20129;-76
2021/04/30 03:17:29;;;;;;;42.30;26.45;;;;;;;7.24;100.00;100784.03;6223357;28;20073;-79
2021/04/30 03:20:30;;;;;;;41.25;27.08;;;;;;;7.26;100.00;100781.34;6222668;28;20054;-78
2021/04/30 03:23:32;;;;;;;37.83;25.63;;;;;;;7.33;100.00;100780.19;6222753;28;20056;-78
2021/04/30 03:26:34;;;;;;;44.97;28.17;;;;;;;7.29;100.00;100787.31;6222852;28;20050;-78
2021/04/30 03:29:34;;;;;;;41.28;27.00;;;;;;;7.29;100.00;100799.53;6221778;28;20438;-78
2021/04/30 03:32:36;;;;;;;38.63;26.38;;;;;;;7.34;100.00;100795.81;6222508;28;20100;-77
2021/04/30 03:35:37;;;;;;;38.92;26.80;;;;;;;7.35;100.00;100802.75;6222043;28;20057;-76
2021/04/30 03:38:38;;;;;;;38.92;25.92;;;;;;;7.40;100.00;100809.56;6222666;28;20422;-76
2021/04/30 03:41:39;;;;;;;40.17;26.80;;;;;;;7.23;100.00;100816.31;6222121;28;20050;-75
2021/04/30 03:44:40;;;;;;;43.70;28.90;;;;;;;7.23;100.00;100813.69;6222280;28;20572;-76
2021/04/30 03:47:41;;;;;;;39.63;27.02;;;;;;;7.33;100.00;100822.03;6222409;28;20065;-78
2021/04/30 03:50:42;;;;;;;42.47;28.50;;;;;;;7.18;100.00;100823.47;6222516;28;20053;-76
2021/04/30 03:53:44;;;;;;;40.15;26.27;;;;;;;7.40;100.00;100831.31;6221748;28;20418;-76
2021/04/30 03:56:45;;;;;;;41.15;26.67;;;;;;;7.34;100.00;100824.56;6222461;28;20053;-76
2021/04/30 03:59:46;;;;;;;41.40;27.38;;;;;;;7.18;100.00;100838.31;6222353;28;20050;-76
2021/04/30 04:02:47;;;;;;;41.88;27.88;;;;;;;7.17;100.00;100833.97;6221966;28;20081;-75
2021/04/30 04:05:48;;;;;;;42.85;29.00;;;;;;;7.08;100.00;100843.00;6221784;28;20366;-77
2021/04/30 04:08:50;;;;;;;41.67;25.98;;;;;;;7.16;100.00;100840.97;6221897;28;20053;-76
2021/04/30 04:11:51;;;;;;;40.53;26.90;;;;;;;7.25;100.00;100845.84;6222040;28;20046;-76
2021/04/30 04:14:52;;;;;;;41.88;28.42;;;;;;;7.11;100.00;100845.50;6221737;28;20069;-76
2021/04/30 04:17:52;;;;;;;48.25;27.30;;;;;;;7.14;100.00;100844.56;6222030;28;20054;-75
2021/04/30 04:20:53;;;;;;;43.83;27.75;;;;;;;7.09;100.00;100849.94;6221978;28;20050;-76
2021/04/30 04:23:55;;;;;;;42.95;27.98;;;;;;;7.07;100.00;100849.13;6221867;28;20050;-76
2021/04/30 04:26:56;;;;;;;43.70;28.67;;;;;;;7.04;100.00;100855.34;6221729;28;20053;-76
2021/04/30 04:29:57;;;;;;;47.65;30.23;;;;;;;7.06;100.00;100860.50;6222035;28;20462;-76
2021/04/30 04:32:58;;;;;;;47.00;29.55;;;;;;;7.05;100.00;100869.25;6221601;28;20120;-76
2021/04/30 04:35:59;;;;;;;44.97;29.88;;;;;;;7.15;100.00;100873.22;6221640;28;20050;-76
2021/04/30 04:39:01;;;;;;;45.90;28.05;;;;;;;7.41;100.00;100880.09;6221881;28;20053;-76
2021/04/30 04:42:03;;;;;;;40.97;27.58;;;;;;;7.34;100.00;100876.84;6225606;28;20429;-76
2021/04/30 04:45:06;;;;;;;46.08;28.27;;;;;;;7.24;100.00;100883.34;6225930;28;20046;-76
2021/04/30 04:48:07;;;;;;;50.20;31.70;;;;;;;7.12;100.00;100882.03;6226114;28;20053;-76
2021/04/30 04:51:08;;;;;;;46.92;30.08;;;;;;;7.31;100.00;100878.72;6226089;28;20054;-76
2021/04/30 04:54:10;;;;;;;48.10;30.48;;;;;;;7.22;100.00;100894.75;6291800;23;20049;-75
2021/04/30 04:57:11;;;;;;;47.40;30.13;;;;;;;7.38;100.00;100901.13;6277491;28;20075;-74
2021/04/30 05:00:13;;;;;;;46.10;30.80;;;;;;;7.47;100.00;100897.31;6276510;28;20045;-74
2021/04/30 05:03:14;;;;;;;50.13;31.25;;;;;;;7.28;100.00;100898.00;6252286;28;20045;-74
2021/04/30 05:06:15;;;;;;;47.17;29.73;;;;;;;7.35;100.00;100896.00;6252777;28;20123;-74
2021/04/30 05:09:16;;;;;;;53.58;32.15;;;;;;;7.28;100.00;100910.22;6252955;28;20054;-77
2021/04/30 05:12:18;;;;;;;51.78;31.98;;;;;;;7.27;100.00;100916.38;6252120;28;20052;-74
2021/04/30 05:15:19;;;;;;;54.80;33.88;;;;;;;7.30;100.00;100919.69;6252441;28;20056;-74
2021/04/30 05:18:20;;;;;;;57.55;35.65;;;;;;;7.24;100.00;100924.31;6252300;28;20512;-74
2021/04/30 05:21:21;;;;;;;55.78;36.28;;;;;;;7.43;100.00;100927.09;6252204;28;20129;-76
2021/04/30 05:24:23;;;;;;;55.63;36.40;;;;;;;7.28;100.00;100934.59;6251817;28;20117;-74
2021/04/30 05:27:24;;;;;;;57.50;35.22;;;;;;;7.40;100.00;100929.81;6251950;28;20127;-74
2021/04/30 05:30:25;;;;;;;55.42;35.47;;;;;;;7.32;100.00;100938.81;6251910;28;20050;-74
2021/04/30 05:33:26;;;;;;;51.50;33.35;;;;;;;7.41;100.00;100945.47;6251545;28;20060;-74
2021/04/30 05:36:27;;;;;;;53.90;33.95;;;;;;;7.47;100.00;100947.00;6251534;28;20436;-74
2021/04/30 05:39:28;;;;;;;57.72;33.97;;;;;;;7.52;100.00;100958.97;6251639;28;20052;-74
2021/04/30 05:42:29;;;;;;;57.65;34.75;;;;;;;7.46;100.00;100956.59;6251695;28;20053;-74
2021/04/30 05:45:30;;;;;;;49.67;32.80;;;;;;;7.69;100.00;100965.34;6251352;28;20076;-76
2021/04/30 05:48:31;;;;;;;54.03;34.08;;;;;;;7.68;100.00;100963.66;6251576;28;20124;-77
2021/04/30 05:51:32;;;;;;;59.10;34.60;;;;;;;7.52;100.00;100964.22;6250371;28;20052;-74
2021/04/30 05:54:34;;;;;;;51.78;33.53;;;;;;;7.82;99.76;100966.59;6250972;28;20045;-77
2021/04/30 05:57:36;;;;;;;50.78;32.60;;;;;;;7.54;100.00;100965.03;6250867;28;20045;-76
2021/04/30 06:00:37;;;;;;;62.20;35.15;;;;;;;7.66;100.00;100971.53;6250836;28;20053;-77
2021/04/30 06:03:38;;;;;;;56.67;32.65;;;;;;;7.66;100.00;100970.69;6250574;28;20131;-77
2021/04/30 06:06:39;;;;;;;57.10;34.85;;;;;;;7.60;100.00;100967.41;6250471;28;20045;-74
2021/04/30 06:09:41;;;;;;;59.33;34.67;;;;;;;7.71;100.00;100973.97;6250348;28;20052;-74
2021/04/30 06:12:42;;;;;;;59.17;34.35;;;;;;;7.86;100.00;100981.28;6250896;28;20111;-77
2021/04/30 06:15:43;;;;;;;56.47;34.30;;;;;;;7.94;99.49;100983.56;6250753;28;20136;-77
2021/04/30 06:18:44;;;;;;;55.00;34.00;;;;;;;7.92;98.93;100981.03;6250618;28;20445;-77
2021/04/30 06:21:45;;;;;;;59.40;33.58;;;;;;;7.96;98.90;100981.75;6249694;28;20398;-76
2021/04/30 06:24:46;;;;;;;52.92;33.05;;;;;;;7.97;99.28;100986.94;6249051;28;20115;-77
2021/04/30 06:27:48;;;;;;;67.38;34.30;;;;;;;7.84;99.38;100985.69;6250022;28;20391;-74
2021/04/30 06:30:50;;;;;;;51.70;31.58;;;;;;;8.09;98.26;100985.59;6250804;28;20046;-77
2021/04/30 06:33:51;;;;;;;44.22;28.92;;;;;;;8.16;97.23;100987.06;6250699;28;20123;-76
2021/04/30 06:36:53;;;;;;;54.15;31.92;;;;;;;8.02;97.82;100989.38;6250607;28;20091;-77
2021/04/30 06:39:55;;;;;;;50.97;33.30;;;;;;;8.02;98.56;100989.38;6249922;28;20046;-74
2021/04/30 06:42:56;;;;;;;50.50;29.52;;;;;;;8.20;95.33;100987.78;6250314;28;20061;-74
2021/04/30 06:45:57;;;;;;;48.30;29.95;;;;;;;8.09;96.39;100983.84;6249731;28;20053;-74
2021/04/30 06:48:58;;;;;;;54.05;32.38;;;;;;;8.17;97.26;100982.66;6249117;28;20151;-74
2021/04/30 06:51:59;;;;;;;49.70;31.30;;;;;;;8.27;96.66;100973.56;6248907;28;20072;-74
2021/04/30 06:55:01;;;;;;;40.78;26.60;;;;;;;8.39;95.35;100979.16;6247393;28;20423;-74
2021/04/30 06:58:02;;;;;;;47.40;27.55;;;;;;;8.42;94.30;100986.06;6247859;28;20490;-74
2021/04/30 07:01:03;;;;;;;40.13;27.23;;;;;;;8.53;95.00;100972.50;6247691;28;20045;-74
2021/04/30 07:04:07;;;;;;;50.88;30.92;;;;;;;8.50;95.59;100972.66;6247788;28;20052;-73
2021/04/30 07:07:08;;;;;;;44.60;25.80;;;;;;;8.62;95.32;100982.59;6256272;28;20071;-74
2021/04/30 07:10:11;;;;;;;46.92;27.65;;;;;;;8.74;94.48;100978.63;6276138;28;20044;-74
2021/04/30 07:13:13;;;;;;;47.47;28.75;;;;;;;8.85;94.52;100972.00;6283686;28;20437;-73
2021/04/30 07:16:14;;;;;;;43.20;26.67;;;;;;;9.05;90.74;100984.28;6296612;28;20071;-74
2021/04/30 07:19:15;;;;;;;45.78;27.92;;;;;;;8.99;92.10;100971.41;6298754;28;20131;-74
2021/04/30 07:22:15;;;;;;;36.13;23.65;;;;;;;9.24;88.81;100986.94;6298397;28;20052;-74
2021/04/30 07:25:17;;;;;;;32.78;22.17;;;;;;;9.37;88.41;100998.59;6298385;28;20072;-75
2021/04/30 07:28:18;;;;;;;37.60;25.67;;;;;;;9.38;90.28;101002.06;6288419;28;20040;-74
2021/04/30 07:31:19;;;;;;;40.72;26.77;;;;;;;9.53;90.07;101005.78;6289990;28;20389;-74
2021/04/30 07:34:20;;;;;;;38.83;25.08;;;;;;;9.61;89.77;101001.03;6269624;28;20178;-74
2021/04/30 07:37:21;;;;;;;34.60;22.73;;;;;;;9.83;86.48;100998.28;6259890;28;20041;-74
2021/04/30 07:40:23;;;;;;;33.60;22.13;;;;;;;9.89;85.69;100993.59;6275688;28;20044;-74
2021/04/30 07:43:24;;;;;;;33.33;20.83;;;;;;;9.82;83.99;101000.06;6297654;28;20048;-74
2021/04/30 07:46:25;;;;;;;34.60;21.33;;;;;;;9.87;83.35;101007.72;6297165;28;20133;-74
2021/04/30 07:49:26;;;;;;;28.30;20.05;;;;;;;9.80;84.99;101008.94;6296832;28;20134;-74
2021/04/30 07:52:27;;;;;;;31.83;20.30;;;;;;;10.06;82.91;101007.72;6296778;28;20078;-74
2021/04/30 07:55:29;;;;;;;31.20;20.17;;;;;;;9.91;85.06;101009.31;6296514;28;20080;-74
2021/04/30 07:58:30;;;;;;;31.83;20.52;;;;;;;9.91;83.94;101015.41;6296894;28;20051;-74
2021/04/30 08:01:31;;;;;;;31.38;20.60;;;;;;;9.94;85.20;101014.38;6285097;28;20041;-74
2021/04/30 08:04:32;;;;;;;33.75;22.27;;;;;;;9.90;84.99;101010.19;6281019;28;20048;-73
2021/04/30 08:07:33;;;;;;;30.42;20.08;;;;;;;10.04;82.60;101012.22;6288123;28;20049;-75
2021/04/30 08:10:35;;;;;;;28.70;19.88;;;;;;;10.01;84.59;101010.56;6296657;28;20072;-73
2021/04/30 08:13:36;;;;;;;32.45;17.38;;;;;;;10.11;80.88;101008.34;6289300;28;20428;-73
2021/04/30 08:16:37;;;;;;;26.65;18.13;;;;;;;10.10;81.24;101017.16;6302105;28;20416;-73
2021/04/30 08:19:39;;;;;;;21.40;16.02;;;;;;;10.04;79.96;101020.94;6303693;28;20048;-73
2021/04/30 08:22:40;;;;;;;31.63;18.13;;;;;;;9.90;81.58;101013.69;6302452;28;20086;-73
2021/04/30 08:25:41;;;;;;;24.30;17.27;;;;;;;9.84;82.16;101016.59;6302570;28;20053;-74
2021/04/30 08:28:42;;;;;;;31.45;17.08;;;;;;;9.86;82.48;101027.03;6302061;28;20467;-74
2021/04/30 08:31:44;;;;;;;28.65;17.98;;;;;;;10.11;81.84;101024.97;6256809;28;20118;-73
2021/04/30 08:34:45;;;;;;;23.90;15.15;;;;;;;10.12;79.34;101020.56;6253287;28;20056;-73
2021/04/30 08:37:46;;;;;;;24.48;16.17;;;;;;;10.31;78.87;101026.69;6254787;28;20045;-74
2021/04/30 08:40:48;;;;;;;27.88;17.23;;;;;;;10.33;79.24;101031.88;6254160;28;20115;-75
2021/04/30 08:43:48;;;;;;;23.85;17.25;;;;;;;10.58;77.91;101029.78;6266905;28;20049;-74
2021/04/30 08:46:49;;;;;;;24.60;15.25;;;;;;;10.29;77.22;101023.28;6273135;28;20144;-74
2021/04/30 08:49:54;;;;;;;22.77;14.60;;;;;;;10.45;75.46;101022.56;6277659;28;20108;-75
2021/04/30 08:52:55;;;;;;;27.25;15.82;;;;;;;10.35;76.17;101032.63;6277526;28;20053;-75
2021/04/30 08:56:01;;;;;;;24.17;15.73;;;;;;;9.94;79.29;101030.13;6278170;28;20068;-75
2021/04/30 08:59:05;;;;;;;21.77;14.05;;;;;;;10.05;78.89;101032.28;6278146;28;20391;-75
2021/04/30 09:02:06;;;;;;;27.40;15.68;;;;;;;10.07;79.00;101035.69;6278190;28;20528;-77
2021/04/30 09:05:09;;;;;;;34.63;17.45;;;;;;;10.03;78.55;101034.13;6277996;28;20049;-74
2021/04/30 09:08:10;;;;;;;25.60;16.13;;;;;;;10.05;79.75;101041.00;6277504;28;20106;-76
2021/04/30 09:11:29;;;;;;;26.17;16.08;;;;;;;9.99;79.28;101046.56;6276570;28;20041;-76
2021/04/30 09:14:32;;;;;;;32.10;16.20;;;;;;;10.10;81.24;101043.44;6276422;28;20049;-74
2021/04/30 09:17:34;;;;;;;512.72;61.55;;;;;;;10.19;79.96;101040.38;6275669;28;20382;-77
2021/04/30 09:20:37;;;;;;;175.40;25.50;;;;;;;10.33;77.91;101040.59;6276348;28;20045;-74
2021/04/30 09:23:40;;;;;;;21.45;11.05;;;;;;;10.29;75.03;101032.94;6275584;28;20049;-75
2021/04/30 09:26:42;;;;;;;25.30;13.27;;;;;;;10.31;76.30;101039.84;6274397;28;20052;-75
2021/04/30 09:29:43;;;;;;;29.83;14.50;;;;;;;10.44;78.41;101034.81;6277514;28;20057;-75
2021/04/30 09:33:03;;;;;;;16.98;12.93;;;;;;;10.59;78.03;101039.34;6283173;28;20055;-76
2021/04/30 09:36:04;;;;;;;17.73;12.05;;;;;;;10.69;77.52;101042.38;6281855;28;20045;-77
2021/04/30 09:39:05;;;;;;;28.00;12.88;;;;;;;10.79;76.61;101042.78;6276078;28;20053;-77
2021/04/30 09:42:09;;;;;;;17.23;10.25;;;;;;;10.76;72.22;101042.91;6276053;28;20045;-75
2021/04/30 09:45:10;;;;;;;32.55;13.02;;;;;;;10.90;72.69;101043.94;6255004;28;20049;-77
2021/04/30 09:48:13;;;;;;;96.10;18.83;;;;;;;10.76;71.76;101054.28;6250893;28;20460;-77
2021/04/30 09:51:41;;;;;;;21.02;12.45;;;;;;;10.97;69.26;101043.63;6283776;28;20045;-75
2021/04/30 09:54:42;;;;;;;64.20;15.20;;;;;;;10.99;67.15;101041.75;6274788;28;20049;-75
2021/04/30 09:57:43;;;;;;;47.10;13.35;;;;;;;10.86;70.50;101044.19;6274646;28;20144;-75
2021/04/30 10:00:46;;;;;;;44.58;12.60;;;;;;;11.02;67.93;101042.47;6274061;28;20103;-75
2021/04/30 10:03:47;;;;;;;12.65;8.65;;;;;;;10.88;66.10;101035.28;6274545;28;20139;-75
2021/04/30 10:06:54;;;;;;;14.23;9.50;;;;;;;10.87;69.28;101044.09;6274092;28;20080;-76
2021/04/30 10:10:07;;;;;;;14.07;8.93;;;;;;;10.94;69.25;101044.63;6273870;28;20056;-76
2021/04/30 10:13:09;;;;;;;19.73;7.10;;;;;;;11.10;68.53;101047.34;6273015;28;20534;-75
2021/04/30 10:16:09;;;;;;;9.98;6.32;;;;;;;11.19;67.20;101041.63;6273698;28;20057;-76
2021/04/30 10:19:11;;;;;;;17.70;8.13;;;;;;;11.22;64.04;101054.63;6273293;28;20061;-75
2021/04/30 10:22:14;;;;;;;12.38;7.65;;;;;;;11.31;66.67;101048.88;6273610;28;20048;-75
2021/04/30 10:25:18;;;;;;;11.38;8.27;;;;;;;11.32;66.00;101047.97;6273728;28;20056;-75
2021/04/30 10:28:26;;;;;;;148.63;22.15;;;;;;;11.34;68.95;101058.38;6274421;28;20053;-75
2021/04/30 10:31:30;;;;;;;305.38;37.42;;;;;;;11.28;68.71;101058.72;6273637;28;20131;-75
2021/04/30 10:34:39;;;;;;;26.13;11.13;;;;;;;11.32;71.09;101058.47;6273239;28;20049;-77
2021/04/30 10:37:42;;;;;;;15.10;9.88;;;;;;;11.29;69.79;101058.63;6272583;28;20060;-77
2021/04/30 10:40:57;;;;;;;14.35;10.50;;;;;;;11.24;71.20;101057.16;6272624;28;20053;-77
2021/04/30 10:44:13;;;;;;;16.70;10.25;;;;;;;11.26;70.33;101058.78;6271324;28;20126;-77
2021/04/30 10:47:27;;;;;;;17.52;10.88;;;;;;;11.26;71.85;101053.50;6273284;28;20052;-75
2021/04/30 10:50:28;;;;;;;16.75;10.38;;;;;;;11.29;69.49;101052.53;6284864;28;20076;-77
2021/04/30 10:53:29;;;;;;;13.55;10.30;;;;;;;11.32;69.69;101065.53;6271438;28;20543;-76
2021/04/30 10:56:33;;;;;;;13.98;8.77;;;;;;;11.23;66.93;101053.69;6272076;28;20045;-76
2021/04/30 10:59:43;;;;;;;13.80;9.73;;;;;;;11.21;67.85;101058.16;6288292;28;20045;-76
2021/04/30 11:02:44;;;;;;;15.27;9.95;;;;;;;11.42;70.48;101046.53;6296503;28;20052;-76
2021/04/30 11:05:54;;;;;;;30.10;9.35;;;;;;;11.51;67.63;101054.91;6295422;28;20052;-76
2021/04/30 11:08:56;;;;;;;32.58;11.82;;;;;;;11.66;68.13;101054.06;6296632;28;20044;-76
2021/04/30 11:12:01;;;;;;;13.35;8.93;;;;;;;11.68;68.65;101058.34;6295560;28;20444;-76
2021/04/30 11:15:06;;;;;;;11.52;9.20;;;;;;;11.72;68.37;101058.16;6293969;28;20122;-76
2021/04/30 11:18:06;;;;;;;12.45;9.35;;;;;;;11.63;68.40;101062.16;6306399;22;20117;-78
2021/04/30 11:21:10;;;;;;;10.15;7.75;;;;;;;11.56;67.57;101060.75;6271924;28;20049;-78
2021/04/30 11:24:40;;;;;;;10.55;7.55;;;;;;;11.61;69.11;101071.91;6272529;28;20139;-78
2021/04/30 11:27:41;;;;;;;9.27;7.00;;;;;;;11.53;68.30;101066.19;6255464;28;20513;-78
2021/04/30 11:30:59;;;;;;;10.43;7.70;;;;;;;11.66;64.97;101073.34;6247491;28;20056;-78
2021/04/30 11:34:20;;;;;;;9.57;7.45;;;;;;;11.59;65.15;101068.50;6247685;28;20056;-79
2021/04/30 11:37:22;;;;;;;10.05;8.02;;;;;;;11.45;65.88;101074.50;6248215;28;20106;-80
2021/04/30 11:40:24;;;;;;;12.90;7.93;;;;;;;11.38;64.89;101068.69;6247409;28;20409;-80
2021/04/30 11:43:25;;;;;;;11.57;7.95;;;;;;;11.31;65.24;101075.22;6253368;28;20136;-79
2021/04/30 11:46:26;;;;;;;22.02;8.50;;;;;;;11.39;64.28;101066.91;6290326;28;20504;-79
2021/04/30 11:49:28;;;;;;;10.73;7.10;;;;;;;11.65;64.57;101070.81;6263631;28;20064;-78
2021/04/30 11:52:30;;;;;;;14.02;8.43;;;;;;;11.63;64.77;101070.06;6258277;28;20045;-75
2021/04/30 11:55:31;;;;;;;11.93;8.30;;;;;;;11.57;62.38;101076.47;6270600;28;20053;-76
2021/04/30 11:58:36;;;;;;;11.40;8.05;;;;;;;11.56;64.43;101066.88;6271426;28;20057;-77
2021/04/30 12:01:37;;;;;;;11.63;8.70;;;;;;;11.67;65.57;101080.34;6287697;28;20404;-78
2021/04/30 12:04:44;;;;;;;12.98;8.52;;;;;;;11.63;66.80;101077.94;6295578;28;20044;-76
2021/04/30 12:07:46;;;;;;;14.18;8.52;;;;;;;11.61;66.97;101069.28;6297033;28;20393;-76
2021/04/30 12:10:47;;;;;;;11.25;8.77;;;;;;;11.63;68.26;101072.69;6296854;28;20052;-76
2021/04/30 12:13:48;;;;;;;18.80;8.35;;;;;;;11.68;69.43;101068.88;6295970;28;20136;-77
2021/04/30 12:16:57;;;;;;;14.13;8.50;;;;;;;11.81;67.54;101068.19;6282219;28;20531;-77
2021/04/30 12:20:11;;;;;;;17.58;8.90;;;;;;;12.01;68.04;101067.19;6273324;28;20059;-77
2021/04/30 12:23:13;;;;;;;13.40;9.68;;;;;;;12.04;64.84;101059.97;6273433;28;20048;-79
2021/04/30 12:26:14;;;;;;;9.90;7.38;;;;;;;12.07;66.05;101065.06;6274041;28;20045;-79
2021/04/30 12:29:14;;;;;;;18.35;8.27;;;;;;;12.24;66.54;101056.22;6278543;28;20616;-78
2021/04/30 12:32:23;;;;;;;9.50;7.32;;;;;;;12.37;65.08;101048.50;6278784;28;20045;-76
2021/04/30 12:35:25;;;;;;;10.53;7.40;;;;;;;12.41;64.04;101047.41;6265467;28;20037;-74
2021/04/30 12:38:27;;;;;;;13.50;8.77;;;;;;;12.53;62.21;101054.59;6262571;28;20048;-75
2021/04/30 12:41:30;;;;;;;12.65;7.82;;;;;;;12.52;65.41;101055.53;6258341;28;20049;-76
2021/04/30 12:44:30;;;;;;;12.88;8.63;;;;;;;12.64;63.41;101048.72;6256064;28;20049;-76
2021/04/30 12:47:32;;;;;;;11.35;8.18;;;;;;;12.84;62.76;101051.06;6258062;28;20424;-76
2021/04/30 12:50:33;;;;;;;9.52;7.38;;;;;;;13.09;63.02;101045.22;6258390;28;20045;-76
2021/04/30 12:53:34;;;;;;;11.88;7.72;;;;;;;13.40;58.83;101041.63;6257896;28;20574;-77
2021/04/30 12:56:36;;;;;;;10.00;7.95;;;;;;;13.52;62.03;101044.44;6256950;28;20052;-75
2021/04/30 12:59:56;;;;;;;9.13;7.10;;;;;;;13.40;62.71;101048.69;6257502;28;20091;-76
2021/04/30 13:02:57;;;;;;;;;;;;;;;13.40;59.35;101054.81;6260851;28;20457;-76
2021/04/30 13:05:59;;;;;;;9.27;7.18;;;;;;;13.41;61.66;101048.59;6259764;28;19967;-76
2021/04/30 13:09:00;;;;;;;9.75;7.45;;;;;;;13.42;60.02;101042.38;6259523;28;20135;-75
2021/04/30 13:12:03;;;;;;;13.38;8.35;;;;;;;13.69;56.48;101034.56;6262225;28;20041;-77
2021/04/30 13:15:05;;;;;;;8.77;7.45;;;;;;;13.15;60.60;101042.19;6259679;28;20056;-76
2021/04/30 13:18:07;;;;;;;10.85;8.38;;;;;;;13.05;61.08;101033.13;6261956;28;20053;-77
2021/04/30 13:21:07;;;;;;;11.10;8.68;;;;;;;13.04;61.81;101038.50;6261205;28;20491;-76
2021/04/30 13:24:14;;;;;;;41.22;9.20;;;;;;;12.99;62.60;101033.50;6259231;28;20053;-76
2021/04/30 13:27:16;;;;;;;12.63;7.95;;;;;;;12.84;60.73;101037.88;6263683;28;20056;-76
2021/04/30 13:30:18;;;;;;;11.63;8.70;;;;;;;12.82;59.94;101028.38;6267135;28;20049;-77
2021/04/30 13:33:21;;;;;;;11.30;7.93;;;;;;;12.56;61.81;101033.34;6259690;28;20123;-76
2021/04/30 13:36:22;;;;;;;17.38;8.80;;;;;;;12.64;62.38;101025.00;6260499;28;20049;-78
2021/04/30 13:39:27;;;;;;;11.85;8.13;;;;;;;12.75;63.09;101027.84;6260734;28;20488;-76
2021/04/30 13:42:37;;;;;;;11.18;8.07;;;;;;;12.65;63.39;101021.41;6261640;28;20041;-79
2021/04/30 13:45:38;;;;;;;9.80;7.97;;;;;;;12.79;62.03;101024.09;6248910;28;20045;-73
2021/04/30 13:48:41;;;;;;;10.73;8.52;;;;;;;12.78;61.31;101017.13;6248736;28;20072;-80
2021/04/30 13:51:42;;;;;;;13.45;8.77;;;;;;;12.51;63.70;101019.56;6273142;28;20056;-74
2021/04/30 13:54:43;;;;;;;15.20;8.50;;;;;;;12.65;62.80;101018.78;6273641;28;20056;-77